South Dartmouth, Massachusetts
Current Conditions -  °F | °C
As of 11:53 AM on Tuesday 21 Oct 2014 (Local Time) from KEWB Reporting Station
Broken Clouds Broken Clouds  
Wind Chill: 62°   Ceiling: 1600
Heat Index: 62°   Visibility: 10mi
Dew Point: 55°   Wind: 14mph
Humidity: 78%   Direction: 160°SSE
Pressure: 29.94"   Gusts: NA
Location:  41.6°N, 70.94°W
Report Text: KEWB 211553Z 16012KT 10SM BKN016 BKN021 17/13 A2994 RMK AO2 SLP137 T01670128
Loading
Personal Weather Stations






























Interactive Weather Map
Tropical Storm Tracking
New forecast layout! Learn more

10-Day Weather Forecast

Advertisements
Track Severe Weather on mobile